createdAt,value
2024-01-19T00:00:41.063Z,7.71
2024-01-19T00:03:08.333Z,7.68
2024-01-19T00:05:35.348Z,7.69
2024-01-19T00:08:03.217Z,7.74
2024-01-19T00:10:32.010Z,7.78
2024-01-19T00:12:58.848Z,7.63
2024-01-19T00:15:33.002Z,7.55
2024-01-19T00:18:06.974Z,7.47
2024-01-19T00:20:34.084Z,7.37
2024-01-19T00:23:00.988Z,7.10
2024-01-19T00:25:27.802Z,7.11
2024-01-19T00:27:54.892Z,7.10
2024-01-19T00:30:21.852Z,7.05
2024-01-19T00:32:49.110Z,7.24
2024-01-19T00:35:17.916Z,7.18
2024-01-19T00:37:46.399Z,6.96
2024-01-19T00:40:13.460Z,6.95
2024-01-19T00:42:41.470Z,7.07
2024-01-19T00:45:10.051Z,6.91
2024-01-19T00:47:37.167Z,6.65
2024-01-19T00:50:05.755Z,6.45
2024-01-19T00:52:32.672Z,6.34
2024-01-19T00:54:59.581Z,6.05
2024-01-19T00:57:26.404Z,6.06
2024-01-19T00:59:53.322Z,5.94
2024-01-19T01:02:21.079Z,5.56
2024-01-19T01:04:48.001Z,5.42
2024-01-19T01:07:14.881Z,5.29
2024-01-19T01:09:41.692Z,5.12
2024-01-19T01:12:08.553Z,5.06
2024-01-19T01:14:35.421Z,4.97
2024-01-19T01:17:02.388Z,4.92
2024-01-19T01:19:29.218Z,4.76
2024-01-19T01:21:55.967Z,4.88
2024-01-19T01:24:23.533Z,4.71
2024-01-19T01:26:50.756Z,4.63
2024-01-19T01:29:17.792Z,4.69
2024-01-19T01:31:44.855Z,4.54
2024-01-19T01:34:11.734Z,4.34
2024-01-19T01:36:38.711Z,4.36
2024-01-19T01:39:05.523Z,4.28
2024-01-19T01:41:32.349Z,4.18
2024-01-19T01:43:59.214Z,4.02
2024-01-19T01:46:25.979Z,4.03
2024-01-19T01:48:53.000Z,4.00
2024-01-19T01:51:19.897Z,3.90
2024-01-19T01:53:46.800Z,3.94
2024-01-19T01:56:13.850Z,3.77
2024-01-19T01:58:40.776Z,3.69
2024-01-19T02:01:07.976Z,3.60
2024-01-19T02:03:35.619Z,3.72
2024-01-19T02:06:02.728Z,3.72
2024-01-19T02:08:29.764Z,3.73
2024-01-19T02:10:56.711Z,3.67
2024-01-19T02:13:23.582Z,3.73
2024-01-19T02:15:50.367Z,3.33
2024-01-19T02:18:17.195Z,3.51
2024-01-19T02:20:43.990Z,3.43
2024-01-19T02:23:13.953Z,3.62
2024-01-19T02:25:41.119Z,3.45
2024-01-19T02:28:08.115Z,3.47
2024-01-19T02:30:35.374Z,3.50
2024-01-19T02:33:04.037Z,3.47
2024-01-19T02:35:31.020Z,3.44
2024-01-19T02:37:57.825Z,3.44
2024-01-19T02:40:24.606Z,3.38
2024-01-19T02:42:51.461Z,3.43
2024-01-19T02:45:18.316Z,3.23
2024-01-19T02:47:45.372Z,3.29
2024-01-19T02:50:12.226Z,3.06
2024-01-19T02:52:39.086Z,3.19
2024-01-19T02:55:06.609Z,3.09
2024-01-19T02:57:33.493Z,3.27
2024-01-19T03:00:00.606Z,3.15
2024-01-19T03:02:27.659Z,2.95
2024-01-19T03:04:54.652Z,3.11
2024-01-19T03:07:21.519Z,3.23
2024-01-19T03:09:48.440Z,3.25
2024-01-19T03:12:15.209Z,3.26
2024-01-19T03:14:42.066Z,3.32
2024-01-19T03:17:08.954Z,3.35
2024-01-19T03:19:36.494Z,3.29
2024-01-19T03:22:03.321Z,3.21
2024-01-19T03:24:30.683Z,3.28
2024-01-19T03:26:57.479Z,3.30
2024-01-19T03:29:24.638Z,3.34
2024-01-19T03:31:51.507Z,3.30
2024-01-19T03:34:18.394Z,3.55
2024-01-19T03:36:45.218Z,3.43
2024-01-19T03:39:12.127Z,3.46
2024-01-19T03:41:38.943Z,3.33
2024-01-19T03:44:05.773Z,3.41
2024-01-19T03:46:32.613Z,3.30
2024-01-19T03:48:59.385Z,3.44
2024-01-19T03:51:26.222Z,3.44
2024-01-19T03:53:53.086Z,3.42
2024-01-19T03:56:20.136Z,3.30
2024-01-19T03:58:46.972Z,3.42
2024-01-19T04:01:14.168Z,3.51
2024-01-19T04:03:41.254Z,3.49
2024-01-19T04:06:08.229Z,3.64
2024-01-19T04:08:35.131Z,3.45
2024-01-19T04:11:01.907Z,3.55
2024-01-19T04:13:28.649Z,3.59
2024-01-19T04:15:55.467Z,3.55
2024-01-19T04:18:22.326Z,3.74
2024-01-19T04:20:49.209Z,3.80
2024-01-19T04:23:17.574Z,3.70
2024-01-19T04:25:44.434Z,3.17
2024-01-19T04:28:11.330Z,3.50
2024-01-19T04:30:38.193Z,3.48
2024-01-19T04:33:05.185Z,3.43
2024-01-19T04:35:32.144Z,3.34
2024-01-19T04:37:58.982Z,3.32
2024-01-19T04:40:25.730Z,3.23
2024-01-19T04:42:52.526Z,3.30
2024-01-19T04:45:19.352Z,3.42
2024-01-19T04:47:46.258Z,3.40
2024-01-19T04:50:13.217Z,3.32
2024-01-19T04:52:40.222Z,3.34
2024-01-19T04:55:07.337Z,3.38
2024-01-19T04:57:34.185Z,3.27
2024-01-19T05:00:01.165Z,3.38
2024-01-19T05:02:28.116Z,3.35
2024-01-19T05:04:54.970Z,3.27
2024-01-19T05:07:21.891Z,3.47
2024-01-19T05:09:48.688Z,3.34
2024-01-19T05:12:15.586Z,3.41
2024-01-19T05:14:42.398Z,3.46
2024-01-19T05:17:09.221Z,3.44
2024-01-19T05:19:36.269Z,3.27
2024-01-19T05:22:03.029Z,3.33
2024-01-19T05:24:29.803Z,3.15
2024-01-19T05:26:56.872Z,3.21
2024-01-19T05:29:23.905Z,3.21
2024-01-19T05:31:50.723Z,3.25
2024-01-19T05:34:17.710Z,3.10
2024-01-19T05:36:44.601Z,3.19
2024-01-19T05:39:11.400Z,3.17
2024-01-19T05:41:38.362Z,3.35
2024-01-19T05:44:05.298Z,3.27
2024-01-19T05:46:32.176Z,3.31
2024-01-19T05:48:59.045Z,3.36
2024-01-19T05:51:26.379Z,3.35
2024-01-19T05:53:53.366Z,3.50
2024-01-19T05:56:20.254Z,3.62
2024-01-19T05:58:47.116Z,3.77
2024-01-19T06:01:13.955Z,3.91
2024-01-19T06:03:41.358Z,3.85
2024-01-19T06:06:08.331Z,3.79
2024-01-19T06:08:35.378Z,3.93
2024-01-19T06:11:02.212Z,4.05
2024-01-19T06:13:29.005Z,4.01
2024-01-19T06:15:55.768Z,4.05
2024-01-19T06:18:22.795Z,3.98
2024-01-19T06:20:49.780Z,4.11
2024-01-19T06:23:16.680Z,4.12
2024-01-19T06:25:43.521Z,4.21
2024-01-19T06:28:11.546Z,4.21
2024-01-19T06:30:38.650Z,4.16
2024-01-19T06:33:08.765Z,4.00
2024-01-19T06:35:36.542Z,3.99
2024-01-19T06:38:07.189Z,4.13
2024-01-19T06:40:34.061Z,4.43
2024-01-19T06:43:01.507Z,4.68
2024-01-19T06:45:28.973Z,5.15
2024-01-19T06:47:55.821Z,5.31
2024-01-19T06:50:24.027Z,5.52
2024-01-19T06:52:51.652Z,5.29
2024-01-19T06:55:18.511Z,5.47
2024-01-19T06:57:45.355Z,5.37
2024-01-19T07:00:12.643Z,5.06
2024-01-19T07:02:39.656Z,4.78
2024-01-19T07:05:06.785Z,4.61
2024-01-19T07:07:33.591Z,4.22
2024-01-19T07:10:00.415Z,4.31
2024-01-19T07:12:27.187Z,4.27
2024-01-19T07:14:54.048Z,4.29
2024-01-19T07:17:20.901Z,4.18
2024-01-19T07:19:47.849Z,4.05
2024-01-19T07:22:14.749Z,4.10
2024-01-19T07:24:41.615Z,4.15
2024-01-19T07:27:08.643Z,4.23
2024-01-19T07:29:35.612Z,4.24
2024-01-19T07:32:02.491Z,4.18
2024-01-19T07:34:29.449Z,4.20
2024-01-19T07:36:57.385Z,4.11
2024-01-19T07:39:27.563Z,4.11
2024-01-19T07:41:55.255Z,4.13
2024-01-19T07:44:22.162Z,3.95
2024-01-19T07:46:49.653Z,3.79
2024-01-19T07:49:22.188Z,3.91
2024-01-19T07:51:50.613Z,3.95
2024-01-19T07:54:19.033Z,3.76
2024-01-19T07:56:46.067Z,3.84
2024-01-19T07:59:13.017Z,3.81
2024-01-19T08:01:40.715Z,3.73
2024-01-19T08:04:07.666Z,3.71
2024-01-19T08:06:34.706Z,3.53
2024-01-19T08:09:01.748Z,3.70
2024-01-19T08:11:28.702Z,3.54
2024-01-19T08:13:55.531Z,3.59
2024-01-19T08:16:22.376Z,3.61
2024-01-19T08:18:49.408Z,3.74
2024-01-19T08:21:16.498Z,3.84
2024-01-19T08:23:43.460Z,3.89
2024-01-19T08:26:10.212Z,3.95
2024-01-19T08:28:37.039Z,3.98
2024-01-19T08:31:04.037Z,3.92
2024-01-19T08:33:30.843Z,3.78
2024-01-19T08:35:58.074Z,4.01
2024-01-19T08:38:24.979Z,4.17
2024-01-19T08:40:51.840Z,4.35
2024-01-19T08:43:18.634Z,4.38
2024-01-19T08:45:45.449Z,4.34
2024-01-19T08:48:12.504Z,4.18
2024-01-19T08:50:39.830Z,4.13
2024-01-19T08:53:06.751Z,3.99
2024-01-19T08:55:33.608Z,3.84
2024-01-19T08:58:00.417Z,3.84
2024-01-19T09:00:27.214Z,3.77
2024-01-19T09:03:00.526Z,4.35
2024-01-19T09:05:31.579Z,4.75
2024-01-19T09:07:58.786Z,5.08
2024-01-19T09:10:25.765Z,5.08
2024-01-19T09:12:52.720Z,4.98
2024-01-19T09:15:19.582Z,4.74
2024-01-19T09:17:46.559Z,4.68
2024-01-19T09:20:14.305Z,4.88
2024-01-19T09:22:41.142Z,4.74
2024-01-19T09:25:08.937Z,4.39
2024-01-19T09:27:36.136Z,4.58
2024-01-19T09:30:03.117Z,4.39
2024-01-19T09:32:30.219Z,4.41
2024-01-19T09:34:57.057Z,4.29
2024-01-19T09:37:23.917Z,4.24
2024-01-19T09:39:50.778Z,4.18
2024-01-19T09:42:29.244Z,4.29
2024-01-19T09:45:03.454Z,4.36
2024-01-19T09:47:54.915Z,4.55
2024-01-19T09:50:24.640Z,4.84
2024-01-19T09:53:00.207Z,5.23
2024-01-19T09:55:28.936Z,5.17
2024-01-19T09:57:58.766Z,5.03
2024-01-19T10:00:25.578Z,5.00
2024-01-19T10:02:53.915Z,4.98
2024-01-19T10:05:22.129Z,4.75
2024-01-19T10:07:50.962Z,4.65
2024-01-19T10:10:18.011Z,4.63
2024-01-19T10:12:44.996Z,4.35
2024-01-19T10:15:13.345Z,4.21
2024-01-19T10:17:41.229Z,4.16
2024-01-19T10:20:11.906Z,4.20
2024-01-19T10:22:39.078Z,4.34
2024-01-19T10:25:11.358Z,4.24
2024-01-19T10:27:52.630Z,4.25
2024-01-19T10:30:23.624Z,4.45
2024-01-19T10:32:53.049Z,3.94
2024-01-19T10:35:24.066Z,4.11
2024-01-19T10:37:51.070Z,4.10
2024-01-19T10:40:26.660Z,4.08
2024-01-19T10:42:56.221Z,3.86
2024-01-19T10:45:38.712Z,3.90
2024-01-19T10:48:05.822Z,3.78
2024-01-19T10:50:32.689Z,3.78
2024-01-19T10:53:01.014Z,3.66
2024-01-19T10:55:32.012Z,3.53
2024-01-19T10:58:12.951Z,3.57
2024-01-19T11:00:40.382Z,3.50
2024-01-19T11:03:07.409Z,3.45
2024-01-19T11:05:34.494Z,3.46
2024-01-19T11:08:03.606Z,3.31
2024-01-19T11:10:34.704Z,3.19
2024-01-19T11:13:03.155Z,3.20
2024-01-19T11:15:45.480Z,3.05
2024-01-19T11:18:13.146Z,3.26
2024-01-19T11:20:40.560Z,3.25
2024-01-19T11:23:08.042Z,3.60
2024-01-19T11:25:56.950Z,4.01
2024-01-19T11:28:31.314Z,4.34
2024-01-19T11:31:04.091Z,4.39
2024-01-19T11:33:33.164Z,4.36
2024-01-19T11:36:00.414Z,4.47
2024-01-19T11:38:56.344Z,4.82
2024-01-19T11:41:35.531Z,4.96
2024-01-19T11:44:04.576Z,5.11
2024-01-19T11:46:48.255Z,5.17
2024-01-19T11:49:40.101Z,5.01
2024-01-19T11:52:10.186Z,4.88
2024-01-19T11:54:38.537Z,4.57
2024-01-19T11:57:26.003Z,4.49
2024-01-19T11:59:54.371Z,4.70
2024-01-19T12:02:22.288Z,4.63
2024-01-19T12:04:49.831Z,4.48
2024-01-19T12:07:21.027Z,4.46
2024-01-19T12:10:09.570Z,4.55
2024-01-19T12:12:37.467Z,4.70
2024-01-19T12:15:06.260Z,4.82
2024-01-19T12:17:33.237Z,4.88
2024-01-19T12:20:00.256Z,5.03
2024-01-19T12:22:27.796Z,4.96
2024-01-19T12:25:22.344Z,5.22
2024-01-19T12:27:49.980Z,5.28
2024-01-19T12:30:18.483Z,5.29
2024-01-19T12:32:48.020Z,5.42
2024-01-19T12:35:20.435Z,5.27
2024-01-19T12:37:47.515Z,5.16
2024-01-19T12:40:19.205Z,5.14
2024-01-19T12:42:46.637Z,5.15
2024-01-19T12:45:19.607Z,5.07
2024-01-19T12:47:53.573Z,5.23
2024-01-19T12:50:23.857Z,5.25
2024-01-19T12:52:52.354Z,5.32
2024-01-19T12:55:32.442Z,5.40
2024-01-19T12:58:00.162Z,5.29
2024-01-19T13:00:29.072Z,5.30
2024-01-19T13:02:59.181Z,5.28
2024-01-19T13:05:28.376Z,5.13
2024-01-19T13:08:03.029Z,5.05
2024-01-19T13:10:30.552Z,5.08
2024-01-19T13:13:06.031Z,4.94
2024-01-19T13:15:32.990Z,4.88
2024-01-19T13:18:13.077Z,4.96
2024-01-19T13:20:40.635Z,5.01
2024-01-19T13:23:08.922Z,5.03
2024-01-19T13:25:36.857Z,5.06
2024-01-19T13:28:03.839Z,5.14
2024-01-19T13:30:31.032Z,5.13
2024-01-19T13:33:03.828Z,4.86
2024-01-19T13:35:31.501Z,4.93
2024-01-19T13:37:58.593Z,5.01
2024-01-19T13:40:25.742Z,5.07
2024-01-19T13:42:55.594Z,5.10
2024-01-19T13:45:25.137Z,5.12
2024-01-19T13:47:51.966Z,5.14
2024-01-19T13:50:19.024Z,5.17
2024-01-19T13:52:46.450Z,5.23
2024-01-19T13:55:15.284Z,5.28
2024-01-19T13:57:42.289Z,5.25
2024-01-19T14:00:10.435Z,5.25
2024-01-19T14:02:37.328Z,5.22
2024-01-19T14:05:05.882Z,5.22
2024-01-19T14:07:33.471Z,5.15
2024-01-19T14:10:00.662Z,5.11
2024-01-19T14:12:27.939Z,5.10
2024-01-19T14:14:54.842Z,5.10
2024-01-19T14:17:21.658Z,5.15
2024-01-19T14:19:48.632Z,5.18
2024-01-19T14:22:15.599Z,5.17
2024-01-19T14:24:42.510Z,5.15
2024-01-19T14:27:09.808Z,5.16
2024-01-19T14:29:38.709Z,5.12
2024-01-19T14:32:05.950Z,5.00
2024-01-19T14:34:36.643Z,4.87
2024-01-19T14:37:13.216Z,4.84
2024-01-19T14:39:43.117Z,4.84
2024-01-19T14:42:09.959Z,4.86
2024-01-19T14:44:36.944Z,4.80
2024-01-19T14:47:05.133Z,4.71
2024-01-19T14:49:33.960Z,4.55
2024-01-19T14:52:02.068Z,4.51
2024-01-19T14:54:31.254Z,4.42
2024-01-19T14:57:00.201Z,4.28
2024-01-19T14:59:27.236Z,4.16
2024-01-19T15:01:54.343Z,3.97
2024-01-19T15:04:21.158Z,3.97
2024-01-19T15:06:47.960Z,3.92
2024-01-19T15:09:15.039Z,3.89
2024-01-19T15:11:41.891Z,3.85
2024-01-19T15:14:08.902Z,3.83
2024-01-19T15:16:36.040Z,3.72
2024-01-19T15:19:02.977Z,3.65
2024-01-19T15:21:31.479Z,3.67
2024-01-19T15:23:59.460Z,3.65
2024-01-19T15:26:27.333Z,3.19
2024-01-19T15:28:54.996Z,3.36
2024-01-19T15:31:24.556Z,3.34
2024-01-19T15:33:52.476Z,3.42
2024-01-19T15:36:20.404Z,3.37
2024-01-19T15:38:48.224Z,3.32
2024-01-19T15:41:23.209Z,3.33
2024-01-19T15:43:51.056Z,3.30
2024-01-19T15:46:25.603Z,3.33
2024-01-19T15:51:28.624Z,3.24
2024-01-19T15:53:56.572Z,3.24
2024-01-19T15:56:32.489Z,3.23
2024-01-19T15:59:04.291Z,3.24
2024-01-19T16:01:31.229Z,3.18
2024-01-19T16:03:59.633Z,3.24
2024-01-19T16:06:27.481Z,3.20
2024-01-19T16:08:54.381Z,3.22
2024-01-19T16:11:21.431Z,3.19
2024-01-19T16:13:48.715Z,3.21
2024-01-19T16:16:17.886Z,3.21
2024-01-19T16:18:46.268Z,3.20
2024-01-19T16:21:18.255Z,3.21
2024-01-19T16:23:45.213Z,3.21
2024-01-19T16:26:12.413Z,3.13
2024-01-19T16:28:39.583Z,3.10
2024-01-19T16:31:06.508Z,3.05
2024-01-19T16:33:33.935Z,2.98
2024-01-19T16:36:01.107Z,2.85
2024-01-19T16:38:31.922Z,2.82
2024-01-19T16:40:59.982Z,2.86
2024-01-19T16:43:28.018Z,2.86
2024-01-19T16:45:56.023Z,2.93
2024-01-19T16:48:23.974Z,2.91
2024-01-19T16:50:52.132Z,2.88
2024-01-19T16:53:19.682Z,2.83
2024-01-19T16:55:47.623Z,2.65
2024-01-19T16:58:18.607Z,2.75
2024-01-19T17:00:46.072Z,2.64
2024-01-19T17:03:15.885Z,2.68
2024-01-19T17:05:43.976Z,2.75
2024-01-19T17:08:13.937Z,2.68
2024-01-19T17:10:41.990Z,2.49
2024-01-19T17:13:09.727Z,2.37
2024-01-19T17:15:36.829Z,2.32
2024-01-19T17:18:04.153Z,2.54
2024-01-19T17:20:31.358Z,2.55
2024-01-19T17:22:58.668Z,2.54
2024-01-19T17:25:25.998Z,2.52
2024-01-19T17:27:52.963Z,2.64
2024-01-19T17:30:22.667Z,2.73
2024-01-19T17:32:49.874Z,2.77
2024-01-19T17:35:17.050Z,2.79
2024-01-19T17:37:44.190Z,2.93
2024-01-19T17:40:11.583Z,2.99
2024-01-19T17:42:38.466Z,3.01
2024-01-19T17:45:15.976Z,3.05
2024-01-19T17:47:53.577Z,2.99
2024-01-19T17:50:24.455Z,2.97
2024-01-19T17:52:52.405Z,2.70
2024-01-19T17:55:19.365Z,2.78
2024-01-19T17:57:49.390Z,2.79
2024-01-19T18:00:17.398Z,2.74
2024-01-19T18:02:44.508Z,2.70
2024-01-19T18:05:11.497Z,2.71
2024-01-19T18:07:39.030Z,2.63
2024-01-19T18:10:06.605Z,2.61
2024-01-19T18:12:33.395Z,2.54
2024-01-19T18:15:00.841Z,2.54
2024-01-19T18:17:27.844Z,2.51
2024-01-19T18:19:54.831Z,2.56
2024-01-19T18:22:21.762Z,2.47
2024-01-19T18:24:48.744Z,2.39
2024-01-19T18:27:16.130Z,2.33
2024-01-19T18:29:44.142Z,2.15
2024-01-19T18:32:13.948Z,2.21
2024-01-19T18:34:41.135Z,2.10
2024-01-19T18:37:08.014Z,1.90
2024-01-19T18:39:34.878Z,1.86
2024-01-19T18:42:01.684Z,1.75
2024-01-19T18:44:30.582Z,1.71
2024-01-19T18:46:57.485Z,1.73
2024-01-19T18:49:24.533Z,1.67
2024-01-19T18:51:51.752Z,1.49
2024-01-19T18:54:19.595Z,1.40
2024-01-19T18:56:46.647Z,1.38
2024-01-19T18:59:15.534Z,1.08
2024-01-19T19:01:43.282Z,1.17
2024-01-19T19:04:11.452Z,1.05
2024-01-19T19:06:38.743Z,1.06
2024-01-19T19:09:06.960Z,0.98
2024-01-19T19:11:34.078Z,0.86
2024-01-19T19:14:01.603Z,0.74
2024-01-19T19:16:36.977Z,0.80
2024-01-19T19:19:13.964Z,0.85
2024-01-19T19:21:41.140Z,0.75
2024-01-19T19:24:08.150Z,0.80
2024-01-19T19:26:35.061Z,0.73
2024-01-19T19:29:03.328Z,0.68
2024-01-19T19:31:30.180Z,0.59
2024-01-19T19:33:57.098Z,0.60
2024-01-19T19:36:23.913Z,0.40
2024-01-19T19:38:50.823Z,0.45
2024-01-19T19:41:19.441Z,0.36
2024-01-19T19:43:46.343Z,0.38
2024-01-19T19:46:15.997Z,0.31
2024-01-19T19:48:43.155Z,0.30
2024-01-19T19:51:10.048Z,0.26
2024-01-19T19:53:38.380Z,0.25
2024-01-19T19:56:05.335Z,0.28
2024-01-19T19:58:32.154Z,0.27
2024-01-19T20:01:02.154Z,0.21
2024-01-19T20:03:29.511Z,0.19
2024-01-19T20:05:56.679Z,0.14
2024-01-19T20:08:25.167Z,0.07
2024-01-19T20:10:52.547Z,0.03
2024-01-19T20:13:19.601Z,0.03
2024-01-19T20:15:46.502Z,-0.07
2024-01-19T20:18:13.868Z,-0.05
2024-01-19T20:20:41.228Z,0.00
2024-01-19T20:23:08.934Z,-0.09
2024-01-19T20:25:36.744Z,-0.02
2024-01-19T20:28:03.946Z,0.04
2024-01-19T20:30:31.017Z,0.00
2024-01-19T20:32:58.577Z,-0.14
2024-01-19T20:35:25.452Z,-0.08
2024-01-19T20:37:55.487Z,-0.33
2024-01-19T20:40:23.385Z,-0.21
2024-01-19T20:42:50.292Z,-0.16
2024-01-19T20:45:17.203Z,-0.26
2024-01-19T20:47:44.170Z,-0.22
2024-01-19T20:50:11.947Z,-0.22
2024-01-19T20:52:39.507Z,-0.36
2024-01-19T20:55:07.029Z,-0.21
2024-01-19T20:57:33.912Z,-0.20
2024-01-19T21:00:00.874Z,-0.20
2024-01-19T21:02:27.775Z,-0.15
2024-01-19T21:04:55.057Z,-0.18
2024-01-19T21:07:22.525Z,-0.16
2024-01-19T21:09:49.742Z,-0.19
2024-01-19T21:12:17.110Z,-0.18
2024-01-19T21:14:44.553Z,-0.17
2024-01-19T21:17:12.230Z,-0.21
2024-01-19T21:19:39.283Z,-0.15
2024-01-19T21:22:07.216Z,-0.17
2024-01-19T21:24:34.792Z,-0.20
2024-01-19T21:27:02.272Z,-0.21
2024-01-19T21:29:29.189Z,-0.31
2024-01-19T21:31:56.110Z,-0.23
2024-01-19T21:34:22.996Z,-0.16
2024-01-19T21:36:49.806Z,-0.10
2024-01-19T21:39:16.705Z,-0.09
2024-01-19T21:41:48.556Z,-0.17
2024-01-19T21:44:16.309Z,-0.08
2024-01-19T21:46:46.205Z,-0.08
2024-01-19T21:49:13.162Z,0.00
2024-01-19T21:51:39.968Z,0.05
2024-01-19T21:54:06.886Z,0.11
2024-01-19T21:56:34.423Z,0.03
2024-01-19T21:59:01.336Z,-0.02
2024-01-19T22:01:28.254Z,0.09
2024-01-19T22:03:55.378Z,0.18
2024-01-19T22:06:22.370Z,0.20
2024-01-19T22:08:49.499Z,0.23
2024-01-19T22:11:17.259Z,0.28
2024-01-19T22:13:44.346Z,0.38
2024-01-19T22:16:11.412Z,0.59
2024-01-19T22:18:38.556Z,0.63
2024-01-19T22:21:06.162Z,0.58
2024-01-19T22:23:34.899Z,0.57
2024-01-19T22:26:01.826Z,0.68
2024-01-19T22:28:34.902Z,0.57
2024-01-19T22:31:02.672Z,0.57
2024-01-19T22:33:30.103Z,0.28
2024-01-19T22:36:04.025Z,0.46
2024-01-19T22:38:37.773Z,0.41
2024-01-19T22:41:04.847Z,0.36
2024-01-19T22:43:31.845Z,0.32
2024-01-19T22:45:58.781Z,0.28
2024-01-19T22:48:25.793Z,0.21
2024-01-19T22:50:52.827Z,0.10
2024-01-19T22:53:19.972Z,0.01
2024-01-19T22:55:47.013Z,-0.04
2024-01-19T22:58:13.974Z,-0.11
2024-01-19T23:00:41.131Z,-0.11
2024-01-19T23:03:08.013Z,-0.12
2024-01-19T23:05:35.150Z,-0.15
2024-01-19T23:08:02.164Z,-0.22
2024-01-19T23:10:29.066Z,-0.22
2024-01-19T23:12:57.183Z,-0.37
2024-01-19T23:15:24.093Z,-0.35
2024-01-19T23:17:51.015Z,-0.40
2024-01-19T23:20:18.044Z,-0.44
2024-01-19T23:22:45.014Z,-0.44
2024-01-19T23:25:19.307Z,-0.52
2024-01-19T23:27:50.271Z,-0.61
2024-01-19T23:30:17.675Z,-0.58
2024-01-19T23:32:44.638Z,-0.57
2024-01-19T23:35:11.616Z,-0.62
2024-01-19T23:37:39.550Z,-0.64
2024-01-19T23:40:07.243Z,-0.66
2024-01-19T23:42:34.358Z,-0.66
2024-01-19T23:45:01.899Z,-0.61
2024-01-19T23:47:28.997Z,-0.50
2024-01-19T23:49:56.189Z,-0.52
2024-01-19T23:52:23.058Z,-0.54
2024-01-19T23:54:50.151Z,-0.41
2024-01-19T23:57:16.989Z,-0.37
2024-01-19T23:59:44.184Z,-0.35
